Terminal Aerodrome Forecast
Issued by NWS

Current Version | Previous Version | Graphics & Text | Print | Product List | Glossary On
Versions: 1 2 3 4 5 6 7 8 9 10 11 12 13 14 15 16 17 18 19
552
FTUS41 KILN 171941 AAA
TAFLUK
TAF AMD
KLUK 171941Z 1720/1818 30012G22KT 2SM TSRA SCT025 BKN040CB
     FM172030 22010KT P6SM VCSH SCT040 BKN100
     FM172300 23006KT P6SM FEW040 SCT100
     FM180700 24004KT 4SM BR BKN015
     FM181300 26008KT P6SM SCT025
     FM181700 27010G18KT P6SM SCT040=

USA.gov is the U.S. government's official web portal to all federal, state and local government web resources and services.